This is the latest recevied weather packets stored in our database for station/object IU2RPR-3. If no packets are shown the sender has not sent any weather packets the latest 10 day(s).
| Time | Temp. | Humidity | Pressure | Rain* | Wind** | Luminosity | Snow |
|---|---|---|---|---|---|---|---|
| 1788248393 | 23.33° C | 62% | 1017.4 hPa | - | - | - | - |
| 1788247191 | 22.78° C | 62% | 1017.3 hPa | - | - | - | - |
| 1788245990 | 21.67° C | 64% | 1017.3 hPa | - | - | - | - |
| 1788244789 | 21.67° C | 65% | 1017.4 hPa | - | - | - | - |
| 1788243588 | 21.67° C | 68% | 1017.4 hPa | - | - | - | - |
| 1788242386 | 21.11° C | 68% | 1017.2 hPa | - | - | - | - |
| 1788241185 | 21.67° C | 71% | 1017.2 hPa | - | - | - | - |
| 1788239984 | 21.11° C | 71% | 1017 hPa | - | - | - | - |
| 1788238783 | 21.11° C | 69% | 1016.8 hPa | - | - | - | - |
| 1788237581 | 20.56° C | 68% | 1016.5 hPa | - | - | - | - |
| 1788236380 | 20.56° C | 69% | 1016.2 hPa | - | - | - | - |
| 1788215956 | 23.33° C | 63% | 1013.9 hPa | - | - | - | - |
| 1788212349 | 23.89° C | 60% | 1013.3 hPa | - | - | - | - |
| 1788211148 | 24.44° C | 59% | 1013.1 hPa | - | - | - | - |
| 1788209947 | 24.44° C | 59% | 1013 hPa | - | - | - | - |
| 1788208745 | 24.44° C | 59% | 1012.9 hPa | - | - | - | - |
| 1788207544 | 24.44° C | 60% | 1012.7 hPa | - | - | - | - |
| 1788206343 | 25° C | 58% | 1012.6 hPa | - | - | - | - |
| 1788205141 | 25.56° C | 57% | 1012.5 hPa | - | - | - | - |
| 1788203940 | 26.11° C | 55% | 1012.5 hPa | - | - | - | - |
| 1788202739 | 27.22° C | 52% | 1012.2 hPa | - | - | - | - |
| 1788201538 | 28.33° C | 47% | 1011.9 hPa | - | - | - | - |
| 1788200336 | 28.89° C | 45% | 1011.7 hPa | - | - | - | - |
| 1788199135 | 30.56° C | 43% | 1011.3 hPa | - | - | - | - |
| 1788197934 | 33.89° C | 37% | 1010.9 hPa | - | - | - | - |
* Rain since midnight (hover to see other rain measurements)
** Current wind speed in m/s (hover to see current wind gust speed)